Time,TemperatureF,DewpointF,PressureIn,WindDirection,WindDirectionDegrees,WindSpeedMPH,WindSpeedGustMPH,Humidity,HourlyPrecipIn,Conditions,Clouds,dailyrainin,SoftwareType,DateUTC
2013-03-23 00:02:00,74.0,69.0,29.97,SE,136,1.0,0.0,85,0.00,,,0.00,,2013-03-23 04:02:00,
2013-03-23 00:12:00,74.0,69.0,29.97,SE,136,1.0,0.0,85,0.00,,,0.00,,2013-03-23 04:12:00,
2013-03-23 00:23:00,74.0,70.0,29.97,SSE,165,1.0,4.0,86,0.00,,,0.00,,2013-03-23 04:23:00,
2013-03-23 00:32:00,73.0,69.0,29.96,SSW,195,1.0,2.0,87,0.00,,,0.00,,2013-03-23 04:32:00,
2013-03-23 00:43:00,73.0,69.0,29.96,SSW,195,1.0,2.0,87,0.00,,,0.00,,2013-03-23 04:43:00,
2013-03-23 00:53:00,73.0,69.0,29.96,SSE,165,0.0,1.0,87,0.00,,,0.00,,2013-03-23 04:53:00,
2013-03-23 01:02:00,73.0,69.0,29.94,SSW,197,3.0,3.0,88,0.00,,,0.00,,2013-03-23 05:02:00,
2013-03-23 01:12:00,73.0,69.0,29.94,SSW,197,3.0,3.0,88,0.00,,,0.00,,2013-03-23 05:12:00,
2013-03-23 01:22:00,73.0,69.0,29.96,SSW,193,0.0,0.0,88,0.00,,,0.00,,2013-03-23 05:22:00,
2013-03-23 01:32:00,73.0,70.0,29.95,SSE,148,0.0,0.0,89,0.00,,,0.00,,2013-03-23 05:32:00,
2013-03-23 01:42:00,73.0,70.0,29.95,SSE,148,0.0,0.0,89,0.00,,,0.00,,2013-03-23 05:42:00,
2013-03-23 01:52:00,73.0,69.0,29.96,East,87,0.0,0.0,88,0.00,,,0.00,,2013-03-23 05:52:00,
2013-03-23 02:02:00,74.0,71.0,29.93,SSW,195,3.0,6.0,89,0.00,,,0.00,,2013-03-23 06:02:00,
2013-03-23 02:12:00,74.0,71.0,29.93,SSW,195,3.0,6.0,89,0.00,,,0.00,,2013-03-23 06:12:00,
2013-03-23 02:22:00,74.0,71.0,29.94,ESE,121,1.0,3.0,89,0.00,,,0.00,,2013-03-23 06:22:00,
2013-03-23 02:32:00,74.0,71.0,29.91,SSE,156,6.0,6.0,90,0.00,,,0.00,,2013-03-23 06:32:00,
2013-03-23 02:42:00,74.0,71.0,29.91,SSE,156,6.0,6.0,90,0.00,,,0.00,,2013-03-23 06:42:00,
2013-03-23 02:52:00,74.0,71.0,29.92,ENE,69,0.0,3.0,90,0.00,,,0.00,,2013-03-23 06:52:00,
2013-03-23 03:02:00,74.0,71.0,29.93,NE,39,0.0,3.0,91,0.00,,,0.00,,2013-03-23 07:02:00,
2013-03-23 03:12:00,74.0,71.0,29.93,NE,39,0.0,3.0,91,0.00,,,0.00,,2013-03-23 07:12:00,
2013-03-23 03:22:00,74.0,71.0,29.94,NE,56,0.0,1.0,90,0.01,,,0.00,,2013-03-23 07:22:00,
2013-03-23 03:32:00,74.0,71.0,29.93,NNE,31,0.0,0.0,90,0.01,,,0.00,,2013-03-23 07:32:00,
2013-03-23 03:42:00,74.0,71.0,29.93,NNE,31,0.0,0.0,90,0.01,,,0.00,,2013-03-23 07:42:00,
2013-03-23 03:52:00,74.0,71.0,29.93,South,173,2.0,3.0,91,0.01,,,0.00,,2013-03-23 07:52:00,
2013-03-23 04:02:00,73.0,70.0,29.91,South,186,0.0,1.0,91,0.01,,,0.00,,2013-03-23 08:02:00,
2013-03-23 04:13:00,73.0,70.0,29.91,South,186,0.0,1.0,91,0.01,,,0.00,,2013-03-23 08:13:00,
2013-03-23 04:22:00,73.0,70.0,29.91,West,260,3.0,4.0,91,0.00,,,0.00,,2013-03-23 08:22:00,
2013-03-23 04:32:00,73.0,70.0,29.91,SSW,210,1.0,1.0,90,0.00,,,0.00,,2013-03-23 08:32:00,
2013-03-23 04:42:00,73.0,70.0,29.91,SSW,210,1.0,1.0,90,0.00,,,0.00,,2013-03-23 08:42:00,
2013-03-23 04:52:00,73.0,70.0,29.91,SSE,158,0.0,0.0,90,0.00,,,0.00,,2013-03-23 08:52:00,
2013-03-23 05:02:00,72.0,69.0,29.91,SSE,158,0.0,0.0,91,0.00,,,0.00,,2013-03-23 09:02:00,
2013-03-23 05:12:00,72.0,69.0,29.91,SSE,158,0.0,0.0,91,0.00,,,0.00,,2013-03-23 09:12:00,
2013-03-23 05:22:00,72.0,70.0,29.90,SSE,158,0.0,0.0,92,0.01,,,0.00,,2013-03-23 09:22:00,
2013-03-23 05:33:00,72.0,70.0,29.91,SSE,158,0.0,0.0,92,0.01,,,0.00,,2013-03-23 09:33:00,
2013-03-23 05:43:00,72.0,70.0,29.91,SSE,158,0.0,0.0,92,0.01,,,0.00,,2013-03-23 09:43:00,
2013-03-23 05:53:00,72.0,70.0,29.91,SSE,158,0.0,0.0,92,0.01,,,0.00,,2013-03-23 09:53:00,
2013-03-23 06:03:00,72.0,70.0,29.91,SSW,212,0.0,0.0,93,0.01,,,0.00,,2013-03-23 10:03:00,
2013-03-23 06:13:00,72.0,70.0,29.91,SSW,212,0.0,0.0,93,0.01,,,0.00,,2013-03-23 10:13:00,
2013-03-23 06:23:00,72.0,70.0,29.91,ESE,120,1.0,0.0,93,0.00,,,0.00,,2013-03-23 10:23:00,
2013-03-23 06:34:00,73.0,71.0,29.91,SSE,148,1.0,1.0,92,0.00,,,0.00,,2013-03-23 10:34:00,
2013-03-23 06:42:00,73.0,71.0,29.91,SSE,148,1.0,1.0,92,0.00,,,0.00,,2013-03-23 10:42:00,
2013-03-23 06:52:00,73.0,71.0,29.91,South,181,0.0,0.0,92,0.00,,,0.00,,2013-03-23 10:52:00,
2013-03-23 07:03:00,73.0,71.0,29.91,SSE,155,0.0,0.0,92,0.00,,,0.00,,2013-03-23 11:03:00,
2013-03-23 07:12:00,73.0,71.0,29.91,SSE,155,0.0,0.0,92,0.00,,,0.00,,2013-03-23 11:12:00,
2013-03-23 07:22:00,73.0,71.0,29.91,SSE,165,1.0,0.0,92,0.00,,,0.00,,2013-03-23 11:22:00,
2013-03-23 07:32:00,73.0,71.0,29.92,SSW,193,0.0,0.0,92,0.00,,,0.00,,2013-03-23 11:32:00,
2013-03-23 07:42:00,73.0,71.0,29.92,SSW,193,0.0,0.0,92,0.00,,,0.00,,2013-03-23 11:42:00,
2013-03-23 07:52:00,73.0,71.0,29.92,SSW,193,0.0,0.0,92,0.00,,,0.00,,2013-03-23 11:52:00,
2013-03-23 08:02:00,73.0,71.0,29.92,South,183,0.0,0.0,92,0.00,,,0.00,,2013-03-23 12:02:00,
2013-03-23 08:13:00,73.0,71.0,29.92,South,183,0.0,0.0,92,0.00,,,0.00,,2013-03-23 12:13:00,
2013-03-23 08:22:00,73.0,71.0,29.92,South,183,0.0,0.0,92,0.00,,,0.00,,2013-03-23 12:22:00,
2013-03-23 08:33:00,73.0,71.0,29.93,South,183,0.0,0.0,92,0.00,,,0.00,,2013-03-23 12:33:00,
2013-03-23 08:42:00,73.0,71.0,29.93,South,183,0.0,0.0,92,0.00,,,0.00,,2013-03-23 12:42:00,
2013-03-23 08:53:00,74.0,72.0,29.93,South,183,0.0,0.0,92,0.00,,,0.00,,2013-03-23 12:53:00,
2013-03-23 09:03:00,75.0,72.0,29.94,SW,218,5.0,5.0,90,0.00,,,0.00,,2013-03-23 13:03:00,
2013-03-23 09:12:00,75.0,72.0,29.94,SW,218,5.0,5.0,90,0.00,,,0.00,,2013-03-23 13:12:00,
2013-03-23 09:23:00,75.0,72.0,29.94,SSW,210,2.0,6.0,89,0.00,,,0.00,,2013-03-23 13:23:00,
2013-03-23 09:33:00,76.0,72.0,29.94,SSW,200,5.0,5.0,88,0.00,,,0.00,,2013-03-23 13:33:00,
2013-03-23 09:43:00,76.0,72.0,29.94,SSW,200,5.0,5.0,88,0.00,,,0.00,,2013-03-23 13:43:00,
2013-03-23 09:53:00,77.0,72.0,29.94,SW,236,3.0,4.0,86,0.00,,,0.00,,2013-03-23 13:53:00,
2013-03-23 10:03:00,78.0,73.0,29.94,South,186,5.0,10.0,84,0.00,,,0.00,,2013-03-23 14:03:00,
2013-03-23 10:12:00,78.0,73.0,29.94,South,186,5.0,10.0,84,0.00,,,0.00,,2013-03-23 14:12:00,
2013-03-23 10:22:00,78.0,72.0,29.94,SSW,208,7.0,7.0,83,0.00,,,0.00,,2013-03-23 14:22:00,
2013-03-23 10:32:00,79.0,73.0,29.94,SW,218,4.0,6.0,81,0.00,,,0.00,,2013-03-23 14:32:00,
2013-03-23 10:43:00,79.0,73.0,29.94,SW,218,4.0,6.0,81,0.00,,,0.00,,2013-03-23 14:43:00,
2013-03-23 10:53:00,80.0,72.0,29.94,South,184,6.0,6.0,77,0.00,,,0.00,,2013-03-23 14:53:00,
2013-03-23 11:03:00,80.0,71.0,29.93,SSW,203,6.0,6.0,75,0.00,,,0.00,,2013-03-23 15:03:00,
2013-03-23 11:12:00,80.0,71.0,29.93,SSW,203,6.0,6.0,75,0.00,,,0.00,,2013-03-23 15:12:00,
2013-03-23 11:22:00,81.0,71.0,29.93,SW,226,6.0,10.0,72,0.00,,,0.00,,2013-03-23 15:22:00,
2013-03-23 11:33:00,82.0,70.0,29.93,WSW,240,8.0,11.0,68,0.00,,,0.00,,2013-03-23 15:33:00,
2013-03-23 11:43:00,82.0,70.0,29.93,WSW,240,8.0,11.0,68,0.00,,,0.00,,2013-03-23 15:43:00,
2013-03-23 11:53:00,82.0,69.0,29.93,SSW,210,7.0,8.0,66,0.00,,,0.00,,2013-03-23 15:53:00,
2013-03-23 12:03:00,83.0,69.0,29.91,South,191,8.0,8.0,63,0.00,,,0.00,,2013-03-23 16:03:00,
2013-03-23 12:13:00,83.0,69.0,29.91,South,191,8.0,8.0,63,0.00,,,0.00,,2013-03-23 16:13:00,
2013-03-23 12:23:00,84.0,71.0,29.91,South,172,5.0,8.0,66,0.00,,,0.00,,2013-03-23 16:23:00,
2013-03-23 12:33:00,83.0,72.0,29.91,ESE,114,4.0,4.0,69,0.00,,,0.00,,2013-03-23 16:33:00,
2013-03-23 12:43:00,83.0,72.0,29.91,ESE,114,4.0,4.0,69,0.00,,,0.00,,2013-03-23 16:43:00,
2013-03-23 12:53:00,83.0,72.0,29.91,South,180,6.0,6.0,69,0.00,,,0.00,,2013-03-23 16:53:00,
2013-03-23 13:02:00,84.0,72.0,29.90,South,173,7.0,7.0,68,0.00,,,0.00,,2013-03-23 17:02:00,
2013-03-23 13:12:00,83.0,71.0,29.89,ESE,121,7.0,7.0,68,0.00,,,0.00,,2013-03-23 17:12:00,
2013-03-23 13:23:00,83.0,71.0,29.89,ESE,121,7.0,7.0,68,0.00,,,0.00,,2013-03-23 17:23:00,
2013-03-23 13:33:00,84.0,71.0,29.88,SE,125,6.0,7.0,66,0.00,,,0.00,,2013-03-23 17:33:00,
2013-03-23 13:42:00,84.0,71.0,29.88,SE,125,6.0,7.0,66,0.00,,,0.00,,2013-03-23 17:42:00,
2013-03-23 13:53:00,84.0,70.0,29.88,SSW,197,7.0,7.0,64,0.00,,,0.00,,2013-03-23 17:53:00,
2013-03-23 14:03:00,85.0,71.0,29.87,SE,132,6.0,10.0,63,0.00,,,0.00,,2013-03-23 18:03:00,
2013-03-23 14:12:00,85.0,71.0,29.87,SE,132,6.0,10.0,63,0.00,,,0.00,,2013-03-23 18:12:00,
2013-03-23 14:22:00,83.0,69.0,29.86,SSW,194,9.0,9.0,62,0.00,,,0.00,,2013-03-23 18:22:00,
2013-03-23 14:32:00,84.0,69.0,29.86,SSE,163,9.0,9.0,60,0.00,,,0.00,,2013-03-23 18:32:00,
2013-03-23 14:42:00,84.0,69.0,29.86,SSE,163,9.0,9.0,60,0.00,,,0.00,,2013-03-23 18:42:00,
2013-03-23 14:53:00,84.0,67.0,29.85,SSE,149,8.0,8.0,57,0.00,,,0.00,,2013-03-23 18:53:00,
2013-03-23 15:03:00,84.0,70.0,29.85,SSW,200,10.0,10.0,62,0.00,,,0.00,,2013-03-23 19:03:00,
2013-03-23 15:13:00,84.0,70.0,29.85,SSW,200,10.0,10.0,62,0.00,,,0.00,,2013-03-23 19:13:00,
2013-03-23 15:23:00,82.0,69.0,29.84,SSW,193,11.0,11.0,65,0.00,,,0.00,,2013-03-23 19:23:00,
2013-03-23 15:32:00,84.0,70.0,29.84,South,187,9.0,11.0,63,0.00,,,0.00,,2013-03-23 19:32:00,
2013-03-23 15:42:00,84.0,70.0,29.84,South,187,9.0,11.0,63,0.00,,,0.00,,2013-03-23 19:42:00,
2013-03-23 15:53:00,83.0,69.0,29.83,SSE,167,12.0,12.0,63,0.00,,,0.00,,2013-03-23 19:53:00,
2013-03-23 16:03:00,84.0,70.0,29.83,South,191,8.0,17.0,63,0.00,,,0.00,,2013-03-23 20:03:00,
2013-03-23 16:13:00,84.0,70.0,29.83,South,191,8.0,17.0,63,0.00,,,0.00,,2013-03-23 20:13:00,
2013-03-23 16:22:00,83.0,69.0,29.82,SSE,159,7.0,7.0,63,0.00,,,0.00,,2013-03-23 20:22:00,
2013-03-23 16:32:00,83.0,70.0,29.81,South,176,7.0,11.0,64,0.00,,,0.00,,2013-03-23 20:32:00,
2013-03-23 16:42:00,83.0,70.0,29.81,South,176,7.0,11.0,64,0.00,,,0.00,,2013-03-23 20:42:00,
2013-03-23 16:53:00,83.0,70.0,29.81,SSW,207,7.0,12.0,66,0.00,,,0.00,,2013-03-23 20:53:00,
2013-03-23 17:02:00,82.0,70.0,29.80,SSE,159,6.0,6.0,67,0.00,,,0.00,,2013-03-23 21:02:00,
2013-03-23 17:12:00,82.0,70.0,29.80,SSE,159,6.0,6.0,67,0.00,,,0.00,,2013-03-23 21:12:00,
2013-03-23 17:22:00,81.0,69.0,29.80,SSW,194,12.0,16.0,68,0.00,,,0.00,,2013-03-23 21:22:00,
2013-03-23 17:33:00,81.0,70.0,29.81,South,186,10.0,10.0,70,0.00,,,0.00,,2013-03-23 21:33:00,
2013-03-23 17:43:00,81.0,70.0,29.81,South,186,10.0,10.0,70,0.00,,,0.00,,2013-03-23 21:43:00,
2013-03-23 17:54:00,81.0,71.0,29.80,SSW,198,10.0,10.0,72,0.00,,,0.00,,2013-03-23 21:54:00,
2013-03-23 18:03:00,81.0,72.0,29.80,SE,142,7.0,7.0,73,0.00,,,0.00,,2013-03-23 22:03:00,
2013-03-23 18:13:00,81.0,72.0,29.80,SE,142,7.0,7.0,73,0.00,,,0.00,,2013-03-23 22:13:00,
2013-03-23 18:23:00,81.0,72.0,29.80,South,184,10.0,12.0,73,0.00,,,0.00,,2013-03-23 22:23:00,
2013-03-23 18:33:00,81.0,71.0,29.80,South,183,8.0,8.0,72,0.00,,,0.00,,2013-03-23 22:33:00,
2013-03-23 18:42:00,81.0,71.0,29.80,South,183,8.0,8.0,72,0.00,,,0.00,,2013-03-23 22:42:00,
2013-03-23 18:53:00,80.0,71.0,29.80,South,190,7.0,8.0,73,0.00,,,0.00,,2013-03-23 22:53:00,
2013-03-23 19:02:00,80.0,71.0,29.81,SSW,200,4.0,8.0,74,0.00,,,0.00,,2013-03-23 23:02:00,
2013-03-23 19:13:00,80.0,71.0,29.81,SSW,200,4.0,8.0,74,0.00,,,0.00,,2013-03-23 23:13:00,
2013-03-23 19:23:00,80.0,71.0,29.81,SSE,160,4.0,4.0,75,0.00,,,0.00,,2013-03-23 23:23:00,
2013-03-23 19:33:00,79.0,71.0,29.81,East,101,5.0,5.0,77,0.00,,,0.00,,2013-03-23 23:33:00,
2013-03-23 19:43:00,79.0,71.0,29.81,East,101,5.0,5.0,77,0.00,,,0.00,,2013-03-23 23:43:00,
2013-03-23 19:52:00,79.0,72.0,29.82,South,179,4.0,4.0,78,0.00,,,0.00,,2013-03-23 23:52:00,
2013-03-23 20:02:00,78.0,71.0,29.82,SW,219,6.0,6.0,79,0.00,,,0.00,,2013-03-24 00:02:00,
2013-03-23 20:13:00,78.0,71.0,29.82,SW,219,6.0,6.0,79,0.00,,,0.00,,2013-03-24 00:13:00,
2013-03-23 20:22:00,78.0,72.0,29.83,South,176,5.0,5.0,81,0.00,,,0.00,,2013-03-24 00:22:00,
2013-03-23 20:33:00,78.0,72.0,29.83,South,173,4.0,4.0,81,0.00,,,0.00,,2013-03-24 00:33:00,
2013-03-23 20:42:00,78.0,72.0,29.83,South,173,4.0,4.0,81,0.00,,,0.00,,2013-03-24 00:42:00,
2013-03-23 20:53:00,78.0,71.0,29.83,SSE,160,4.0,4.0,80,0.00,,,0.00,,2013-03-24 00:53:00,
2013-03-23 21:02:00,78.0,71.0,29.84,SSW,194,4.0,4.0,80,0.00,,,0.00,,2013-03-24 01:02:00,
2013-03-23 21:12:00,78.0,71.0,29.84,SSW,194,4.0,4.0,80,0.00,,,0.00,,2013-03-24 01:12:00,
2013-03-23 21:22:00,78.0,72.0,29.84,South,184,3.0,4.0,81,0.00,,,0.00,,2013-03-24 01:22:00,
2013-03-23 21:32:00,77.0,71.0,29.85,SSW,194,0.0,4.0,83,0.00,,,0.00,,2013-03-24 01:32:00,
2013-03-23 21:42:00,77.0,71.0,29.85,SSW,194,0.0,4.0,83,0.00,,,0.00,,2013-03-24 01:42:00,
2013-03-23 21:53:00,77.0,71.0,29.85,West,266,0.0,0.0,83,0.00,,,0.00,,2013-03-24 01:53:00,
2013-03-23 22:03:00,76.0,71.0,29.86,SW,215,2.0,2.0,85,0.00,,,0.00,,2013-03-24 02:03:00,
2013-03-23 22:12:00,76.0,71.0,29.86,SW,215,2.0,2.0,85,0.00,,,0.00,,2013-03-24 02:12:00,
2013-03-23 22:22:00,76.0,71.0,29.86,SSE,166,4.0,4.0,85,0.00,,,0.00,,2013-03-24 02:22:00,
2013-03-23 22:32:00,76.0,71.0,29.87,South,183,3.0,3.0,85,0.00,,,0.00,,2013-03-24 02:32:00,
2013-03-23 22:42:00,76.0,71.0,29.87,South,183,3.0,3.0,85,0.00,,,0.00,,2013-03-24 02:42:00,
2013-03-23 22:52:00,76.0,71.0,29.87,SSW,204,0.0,0.0,85,0.00,,,0.00,,2013-03-24 02:52:00,
2013-03-23 23:02:00,76.0,72.0,29.88,SSW,204,0.0,0.0,86,0.00,,,0.00,,2013-03-24 03:02:00,
2013-03-23 23:12:00,76.0,72.0,29.88,SSW,204,0.0,0.0,86,0.00,,,0.00,,2013-03-24 03:12:00,
2013-03-23 23:23:00,76.0,72.0,29.88,SSW,204,0.0,0.0,86,0.00,,,0.00,,2013-03-24 03:23:00,
2013-03-23 23:33:00,76.0,72.0,29.88,SSW,204,0.0,0.0,87,0.00,,,0.00,,2013-03-24 03:33:00,
2013-03-23 23:42:00,76.0,72.0,29.88,SSW,204,0.0,0.0,87,0.00,,,0.00,,2013-03-24 03:42:00,
2013-03-23 23:53:00,76.0,72.0,29.88,SSW,204,0.0,0.0,87,0.00,,,0.00,,2013-03-24 03:53:00,